Ouranos — SVAG8 — position and weather

sailwx.info

Track history (hours):
 
Tides and Currents Weather Stations Pressure Air Temp Water Temp Dewpoint Dewpoint Depression Visibility Wind Speed Wind Dir Waves Ship Positions

Ouranos

Last reported at 2018-Jun-17 17:50 UTC. Time now 2018-Jun-22 15:25 UTC.
Position N 40°43' E 025°48'.

Length 45 m.

Type: Pleasure craft. MMSI: 23700000.

Date/timePositionNaut miles runAvg speedWind from/ knotsBaromVisibWave heightAir tempDewpointWater temp
2018-Jun-17 17:50N 40°43' E 025°48'412.7
2018-Jun-17 17:30N 40°40' E 025°44'712.2
2018-Jun-17 16:54N 40°35' E 025°37'612.3
2018-Jun-17 16:24N 40°31' E 025°31'3 2.1
2018-Jun-17 14:44N 40°29' E 025°28'0 0.0
2018-Jun-17 06:27N 40°28' E 025°28'0 0.0
2018-Jun-17 05:59N 40°28' E 025°28'0 0.0
2018-Jun-17 05:30N 40°28' E 025°28'0 0.0
2018-Jun-17 04:25N 40°28' E 025°28'0 0.0
2018-Jun-17 04:00N 40°28' E 025°28'0 0.0
2018-Jun-17 02:46N 40°28' E 025°28'0 0.0
2018-Jun-16 21:02N 40°28' E 025°28'0 0.0
2018-Jun-16 20:12N 40°28' E 025°28'0 0.0
2018-Jun-16 20:00N 40°28' E 025°28'0 0.0
2018-Jun-16 19:21N 40°28' E 025°28'0 0.0
2018-Jun-16 18:41N 40°28' E 025°28'0 0.0
2018-Jun-16 18:19N 40°28' E 025°28'0 0.0
2018-Jun-16 17:59N 40°28' E 025°28'0 0.0
2018-Jun-16 15:45N 40°28' E 025°28'10 1.7
2018-Jun-16 09:58N 40°36' E 025°37'612.6
2018-Jun-16 09:28N 40°31' E 025°31'3 5.4
2018-Jun-16 08:49N 40°28' E 025°28'0 0.0
2018-Jun-16 08:30N 40°28' E 025°28'0 0.0
2018-Jun-16 08:00N 40°28' E 025°28'0 0.0
2018-Jun-16 07:25N 40°28' E 025°28'0 0.0
2018-Jun-16 06:59N 40°28' E 025°28'0 0.0
2018-Jun-16 05:08N 40°28' E 025°28'0 0.0
2018-Jun-16 04:54N 40°28' E 025°28'0 0.0
2018-Jun-16 04:28N 40°28' E 025°28'0 0.0
2018-Jun-16 04:00N 40°28' E 025°28'0 0.0
2018-Jun-16 02:02N 40°28' E 025°28'0 0.0
2018-Jun-16 01:59N 40°28' E 025°28'0 0.0
2018-Jun-16 00:59N 40°28' E 025°28'0 0.0
2018-Jun-16 00:26N 40°28' E 025°28'0 0.0
2018-Jun-15 20:51N 40°28' E 025°28'0 0.0
2018-Jun-15 20:30N 40°28' E 025°28'0 0.0
2018-Jun-15 18:42N 40°28' E 025°28'0 0.0
2018-Jun-15 17:41N 40°28' E 025°28'0 0.0
2018-Jun-15 17:24N 40°28' E 025°28'0 0.0
2018-Jun-15 17:00N 40°28' E 025°28'2 3.7
2018-Jun-15 16:30N 40°30' E 025°29'1012.3
2018-Jun-15 15:40N 40°37' E 025°39'211.7
2018-Jun-15 15:29N 40°39' E 025°41'8 1.6
2018-Jun-15 10:35N 40°33' E 025°33'112.3
2018-Jun-15 10:28N 40°32' E 025°32'5 9.4
2018-Jun-15 09:57N 40°28' E 025°28'0 0.0
2018-Jun-15 09:30N 40°28' E 025°28'0 0.0
2018-Jun-15 08:42N 40°28' E 025°28'1 3.1
2018-Jun-15 08:29N 40°29' E 025°28'612.8
2018-Jun-15 07:59N 40°34' E 025°34'22 1.7
2018-Jun-14 18:45N 40°51' E 025°53'7 9.6
2018-Jun-14 18:04N 40°45' E 025°49'212.8
2018-Jun-14 17:57N 40°44' E 025°48'613.0
2018-Jun-14 17:29N 40°39' E 025°42'612.9
2018-Jun-14 17:00N 40°35' E 025°36'712.7
2018-Jun-14 16:29N 40°31' E 025°30'2 2.0
2018-Jun-14 15:16N 40°28' E 025°28'0 0.0
2018-Jun-14 14:59N 40°28' E 025°28'3 5.5
2018-Jun-14 14:28N 40°31' E 025°30'1612.3
2018-Jun-14 13:13N 40°42' E 025°44'511.9
2018-Jun-14 12:47N 40°46' E 025°49'312.0
2018-Jun-14 12:31N 40°48' E 025°52'2 0.4
2018-Jun-14 06:41N 40°50' E 025°54'412.2
2018-Jun-14 06:19N 40°47' E 025°50'412.5
2018-Jun-14 06:00N 40°44' E 025°46'612.5
2018-Jun-14 05:30N 40°39' E 025°40'612.1
2018-Jun-14 05:00N 40°35' E 025°35'611.8
2018-Jun-14 04:30N 40°31' E 025°30'2 4.7
2018-Jun-14 03:58N 40°28' E 025°28'0 0.0
2018-Jun-14 03:30N 40°28' E 025°28'0 0.0
2018-Jun-14 03:00N 40°28' E 025°28'0 0.0
2018-Jun-14 02:29N 40°28' E 025°28'0 0.0
2018-Jun-14 02:00N 40°28' E 025°28'0 0.0
2018-Jun-14 01:29N 40°28' E 025°28'0 0.0
2018-Jun-14 00:55N 40°28' E 025°28'0 0.0
2018-Jun-14 00:29N 40°28' E 025°28'0 0.0
2018-Jun-14 00:00N 40°28' E 025°28'0 0.0
2018-Jun-13 23:22N 40°28' E 025°28'0 0.0
2018-Jun-13 23:00N 40°28' E 025°28'0 0.0
2018-Jun-13 22:30N 40°28' E 025°28'0 0.0
2018-Jun-13 21:59N 40°28' E 025°28'0 0.0
2018-Jun-13 21:26N 40°28' E 025°28'0 0.0
2018-Jun-13 21:00N 40°28' E 025°28'0 0.0
2018-Jun-13 20:29N 40°28' E 025°28'0 0.0
2018-Jun-13 20:00N 40°28' E 025°28'0 0.0
2018-Jun-13 19:28N 40°28' E 025°28'0 0.0
2018-Jun-13 19:00N 40°28' E 025°28'1 1.2
2018-Jun-13 18:30N 40°29' E 025°28'713.0
2018-Jun-13 17:56N 40°35' E 025°35'512.4
2018-Jun-13 17:30N 40°38' E 025°40'612.1
2018-Jun-13 17:00N 40°42' E 025°46'612.6
2018-Jun-13 16:30N 40°47' E 025°51'3 1.4
2018-Jun-13 14:15N 40°49' E 025°54'312.3
2018-Jun-13 14:00N 40°47' E 025°52'713.3
2018-Jun-13 13:29N 40°42' E 025°45'713.4
2018-Jun-13 13:00N 40°38' E 025°38'713.0
2018-Jun-13 12:29N 40°33' E 025°32'511.5
2018-Jun-13 12:00N 40°28' E 025°28'0 0.1
2018-Jun-13 10:50N 40°28' E 025°28'1 3.0
2018-Jun-13 10:29N 40°30' E 025°28'613.0
2018-Jun-13 10:00N 40°34' E 025°34'712.6
2018-Jun-13 09:29N 40°39' E 025°40'612.3
2018-Jun-13 09:00N 40°43' E 025°46'612.6
2018-Jun-13 08:30N 40°48' E 025°51'3 0.2
2018-Jun-12 18:39N 40°51' E 025°53'1 7.1
2018-Jun-12 18:31N 40°50' E 025°54'1012.4
2018-Jun-12 17:41N 40°42' E 025°46'212.3
2018-Jun-12 17:30N 40°40' E 025°44'712.9
2018-Jun-12 16:59N 40°36' E 025°37'613.1
2018-Jun-12 16:31N 40°31' E 025°31'4 2.2
2018-Jun-12 14:47N 40°28' E 025°28'0 0.0
2018-Jun-12 14:30N 40°28' E 025°28'0 0.0
2018-Jun-12 13:12N 40°28' E 025°28'0 0.0
2018-Jun-12 12:56N 40°28' E 025°28'0 0.0
2018-Jun-12 12:27N 40°28' E 025°28'0 0.0
2018-Jun-12 11:44N 40°28' E 025°28'0 0.0
2018-Jun-12 11:30N 40°28' E 025°28'0 0.0
2018-Jun-12 10:59N 40°28' E 025°28'0 0.0
2018-Jun-12 10:20N 40°28' E 025°28'0 0.0
2018-Jun-12 10:00N 40°28' E 025°28'0 0.0
2018-Jun-12 09:30N 40°28' E 025°28'0 0.0
2018-Jun-12 09:00N 40°28' E 025°28'1 1.3
2018-Jun-12 08:30N 40°29' E 025°28'612.8
2018-Jun-12 08:01N 40°34' E 025°33'612.9
2018-Jun-12 07:30N 40°38' E 025°40'612.7
2018-Jun-12 07:00N 40°43' E 025°46'1011.7
2018-Jun-12 06:11N 40°50' E 025°53'14 1.1
2018-Jun-11 17:27N 40°40' E 025°41'612.8
2018-Jun-11 16:57N 40°36' E 025°35'7 0.3
2018-Jun-10 17:20N 40°39' E 025°43'412.6
2018-Jun-10 17:01N 40°36' E 025°39'612.6
2018-Jun-10 16:30N 40°32' E 025°32'5 8.6
2018-Jun-10 15:59N 40°28' E 025°28'0 0.0
2018-Jun-10 15:29N 40°28' E 025°28'0 0.0
2018-Jun-10 14:59N 40°28' E 025°28'15 2.6
2018-Jun-10 09:20N 40°39' E 025°42'612.6
2018-Jun-10 08:52N 40°35' E 025°36'412.3
2018-Jun-10 08:30N 40°32' E 025°32'5 2.3
2018-Jun-10 06:29N 40°28' E 025°28'0 0.0
2018-Jun-10 05:51N 40°28' E 025°28'0 0.0
2018-Jun-10 05:30N 40°28' E 025°28'0 0.0
2018-Jun-10 04:48N 40°28' E 025°28'0 0.0
2018-Jun-10 04:28N 40°28' E 025°28'0 0.0
2018-Jun-10 04:00N 40°28' E 025°28'0 0.0
2018-Jun-10 03:30N 40°28' E 025°28'0 0.0
2018-Jun-10 03:00N 40°28' E 025°28'0 0.0
2018-Jun-10 02:30N 40°28' E 025°28'0 0.0
2018-Jun-10 02:00N 40°28' E 025°28'0 0.0
2018-Jun-10 01:29N 40°28' E 025°28'0 0.0
2018-Jun-10 01:00N 40°28' E 025°28'0 0.0
2018-Jun-10 00:30N 40°28' E 025°28'0 0.0
2018-Jun-10 00:00N 40°28' E 025°28'0 0.0
2018-Jun-09 23:30N 40°28' E 025°28'0 0.0
2018-Jun-09 23:01N 40°28' E 025°28'0 0.0
2018-Jun-09 22:31N 40°28' E 025°28'0 0.0
2018-Jun-09 22:00N 40°28' E 025°28'0 0.0
2018-Jun-09 21:30N 40°28' E 025°28'0 0.0
2018-Jun-09 21:01N 40°28' E 025°28'0 0.0
2018-Jun-09 20:31N 40°28' E 025°28'0 0.0
2018-Jun-09 20:00N 40°28' E 025°28'0 0.0
2018-Jun-09 19:23N 40°28' E 025°28'0 0.0
2018-Jun-09 18:59N 40°28' E 025°28'0 0.0
2018-Jun-09 18:30N 40°28' E 025°28'0 0.0
2018-Jun-09 18:00N 40°28' E 025°28'0 0.0
2018-Jun-09 17:30N 40°28' E 025°28'0 0.0
2018-Jun-09 17:00N 40°28' E 025°28'0 0.0
2018-Jun-09 16:26N 40°28' E 025°28'0 0.0
2018-Jun-09 15:51N 40°28' E 025°28'0 1.4
2018-Jun-09 15:30N 40°29' E 025°28'29 7.2
2018-Jun-09 11:30N 40°50' E 025°54'612.5
2018-Jun-09 11:01N 40°45' E 025°50'612.4
2018-Jun-09 10:30N 40°40' E 025°44'612.6
2018-Jun-09 10:00N 40°36' E 025°38'612.4
2018-Jun-09 09:30N 40°32' E 025°32'4 2.8
2018-Jun-09 07:58N 40°28' E 025°28'0 0.0
2018-Jun-09 07:19N 40°28' E 025°28'0 0.0
2018-Jun-09 06:02N 40°28' E 025°28'0 0.0
2018-Jun-09 06:00N 40°28' E 025°28'0 0.0
2018-Jun-09 05:18N 40°28' E 025°28'0 0.0
2018-Jun-09 04:54N 40°28' E 025°28'0 0.0
2018-Jun-09 04:30N 40°28' E 025°28'0 0.0
2018-Jun-09 03:59N 40°28' E 025°28'0 0.0
2018-Jun-09 03:10N 40°28' E 025°28'0 0.0
2018-Jun-09 03:00N 40°28' E 025°28'0 0.0
2018-Jun-09 02:30N 40°28' E 025°28'0 0.0
2018-Jun-09 01:52N 40°28' E 025°28'0 0.0
2018-Jun-09 01:27N 40°28' E 025°28'0 0.0
2018-Jun-09 01:00N 40°28' E 025°28'0 0.0
2018-Jun-09 00:30N 40°28' E 025°28'0 0.0
2018-Jun-08 23:59N 40°28' E 025°28'0 0.0
2018-Jun-08 23:28N 40°28' E 025°28'0 0.0
2018-Jun-08 22:54N 40°28' E 025°28'0 0.0
2018-Jun-08 22:30N 40°28' E 025°28'0 0.0
2018-Jun-08 22:00N 40°28' E 025°28'0 0.0
2018-Jun-08 21:30N 40°28' E 025°28'0 0.0
2018-Jun-08 20:54N 40°28' E 025°28'0 0.0
2018-Jun-08 20:17N 40°28' E 025°28'0 0.0
2018-Jun-08 20:00N 40°28' E 025°28'0 0.0
2018-Jun-08 19:25N 40°28' E 025°28'0 0.0
2018-Jun-08 18:58N 40°28' E 025°28'0 0.0
2018-Jun-08 18:30N 40°28' E 025°28'0 0.0
2018-Jun-08 18:00N 40°28' E 025°28'0 0.0
2018-Jun-08 17:22N 40°28' E 025°28'0 0.0
2018-Jun-08 16:56N 40°28' E 025°28'1 1.9
2018-Jun-08 16:30N 40°29' E 025°28'612.8
2018-Jun-08 16:00N 40°34' E 025°35'20 5.4
2018-Jun-08 12:19N 40°48' E 025°53'412.5
2018-Jun-08 11:59N 40°45' E 025°50'612.5
2018-Jun-08 11:30N 40°41' E 025°43'612.5
2018-Jun-08 11:01N 40°37' E 025°38'612.4
2018-Jun-08 10:30N 40°32' E 025°32'5 9.2
2018-Jun-08 10:00N 40°28' E 025°28'0 0.0
2018-Jun-08 08:39N 40°29' E 025°28'1 5.1
2018-Jun-08 08:30N 40°29' E 025°28'  
Track history (hours):
 
Tides and Currents Weather Stations Pressure Air Temp Water Temp Dewpoint Dewpoint Depression Visibility Wind Speed Wind Dir Waves Ship Positions

Ouranos

Last reported at 2018-Jun-17 17:50 UTC. Time now 2018-Jun-22 15:25 UTC.
Position N 40°43' E 025°48'.

Length 45 m.

Type: Pleasure craft. MMSI: 23700000.

Date/timePositionNaut miles runAvg speedWind from/ knotsBaromVisibWave heightAir tempDewpointWater temp
2018-Jun-17 17:50N 40°43' E 025°48'412.7
2018-Jun-17 17:30N 40°40' E 025°44'712.2
2018-Jun-17 16:54N 40°35' E 025°37'612.3
2018-Jun-17 16:24N 40°31' E 025°31'3 2.1
2018-Jun-17 14:44N 40°29' E 025°28'0 0.0
2018-Jun-17 06:27N 40°28' E 025°28'0 0.0
2018-Jun-17 05:59N 40°28' E 025°28'0 0.0
2018-Jun-17 05:30N 40°28' E 025°28'0 0.0
2018-Jun-17 04:25N 40°28' E 025°28'0 0.0
2018-Jun-17 04:00N 40°28' E 025°28'0 0.0
2018-Jun-17 02:46N 40°28' E 025°28'0 0.0
2018-Jun-16 21:02N 40°28' E 025°28'0 0.0
2018-Jun-16 20:12N 40°28' E 025°28'0 0.0
2018-Jun-16 20:00N 40°28' E 025°28'0 0.0
2018-Jun-16 19:21N 40°28' E 025°28'0 0.0
2018-Jun-16 18:41N 40°28' E 025°28'0 0.0
2018-Jun-16 18:19N 40°28' E 025°28'0 0.0
2018-Jun-16 17:59N 40°28' E 025°28'0 0.0
2018-Jun-16 15:45N 40°28' E 025°28'10 1.7
2018-Jun-16 09:58N 40°36' E 025°37'612.6
2018-Jun-16 09:28N 40°31' E 025°31'3 5.4
2018-Jun-16 08:49N 40°28' E 025°28'0 0.0
2018-Jun-16 08:30N 40°28' E 025°28'0 0.0
2018-Jun-16 08:00N 40°28' E 025°28'0 0.0
2018-Jun-16 07:25N 40°28' E 025°28'0 0.0
2018-Jun-16 06:59N 40°28' E 025°28'0 0.0
2018-Jun-16 05:08N 40°28' E 025°28'0 0.0
2018-Jun-16 04:54N 40°28' E 025°28'0 0.0
2018-Jun-16 04:28N 40°28' E 025°28'0 0.0
2018-Jun-16 04:00N 40°28' E 025°28'0 0.0
2018-Jun-16 02:02N 40°28' E 025°28'0 0.0
2018-Jun-16 01:59N 40°28' E 025°28'0 0.0
2018-Jun-16 00:59N 40°28' E 025°28'0 0.0
2018-Jun-16 00:26N 40°28' E 025°28'0 0.0
2018-Jun-15 20:51N 40°28' E 025°28'0 0.0
2018-Jun-15 20:30N 40°28' E 025°28'0 0.0
2018-Jun-15 18:42N 40°28' E 025°28'0 0.0
2018-Jun-15 17:41N 40°28' E 025°28'0 0.0
2018-Jun-15 17:24N 40°28' E 025°28'0 0.0
2018-Jun-15 17:00N 40°28' E 025°28'2 3.7
2018-Jun-15 16:30N 40°30' E 025°29'1012.3
2018-Jun-15 15:40N 40°37' E 025°39'211.7
2018-Jun-15 15:29N 40°39' E 025°41'8 1.6
2018-Jun-15 10:35N 40°33' E 025°33'112.3
2018-Jun-15 10:28N 40°32' E 025°32'5 9.4
2018-Jun-15 09:57N 40°28' E 025°28'0 0.0
2018-Jun-15 09:30N 40°28' E 025°28'0 0.0
2018-Jun-15 08:42N 40°28' E 025°28'1 3.1
2018-Jun-15 08:29N 40°29' E 025°28'612.8
2018-Jun-15 07:59N 40°34' E 025°34'22 1.7
2018-Jun-14 18:45N 40°51' E 025°53'7 9.6
2018-Jun-14 18:04N 40°45' E 025°49'212.8
2018-Jun-14 17:57N 40°44' E 025°48'613.0
2018-Jun-14 17:29N 40°39' E 025°42'612.9
2018-Jun-14 17:00N 40°35' E 025°36'712.7
2018-Jun-14 16:29N 40°31' E 025°30'2 2.0
2018-Jun-14 15:16N 40°28' E 025°28'0 0.0
2018-Jun-14 14:59N 40°28' E 025°28'3 5.5
2018-Jun-14 14:28N 40°31' E 025°30'1612.3
2018-Jun-14 13:13N 40°42' E 025°44'511.9
2018-Jun-14 12:47N 40°46' E 025°49'312.0
2018-Jun-14 12:31N 40°48' E 025°52'2 0.4
2018-Jun-14 06:41N 40°50' E 025°54'412.2
2018-Jun-14 06:19N 40°47' E 025°50'412.5
2018-Jun-14 06:00N 40°44' E 025°46'612.5
2018-Jun-14 05:30N 40°39' E 025°40'612.1
2018-Jun-14 05:00N 40°35' E 025°35'611.8
2018-Jun-14 04:30N 40°31' E 025°30'2 4.7
2018-Jun-14 03:58N 40°28' E 025°28'0 0.0
2018-Jun-14 03:30N 40°28' E 025°28'0 0.0
2018-Jun-14 03:00N 40°28' E 025°28'0 0.0
2018-Jun-14 02:29N 40°28' E 025°28'0 0.0
2018-Jun-14 02:00N 40°28' E 025°28'0 0.0
2018-Jun-14 01:29N 40°28' E 025°28'0 0.0
2018-Jun-14 00:55N 40°28' E 025°28'0 0.0
2018-Jun-14 00:29N 40°28' E 025°28'0 0.0
2018-Jun-14 00:00N 40°28' E 025°28'0 0.0
2018-Jun-13 23:22N 40°28' E 025°28'0 0.0
2018-Jun-13 23:00N 40°28' E 025°28'0 0.0
2018-Jun-13 22:30N 40°28' E 025°28'0 0.0
2018-Jun-13 21:59N 40°28' E 025°28'0 0.0
2018-Jun-13 21:26N 40°28' E 025°28'0 0.0
2018-Jun-13 21:00N 40°28' E 025°28'0 0.0
2018-Jun-13 20:29N 40°28' E 025°28'0 0.0
2018-Jun-13 20:00N 40°28' E 025°28'0 0.0
2018-Jun-13 19:28N 40°28' E 025°28'0 0.0
2018-Jun-13 19:00N 40°28' E 025°28'1 1.2
2018-Jun-13 18:30N 40°29' E 025°28'713.0
2018-Jun-13 17:56N 40°35' E 025°35'512.4
2018-Jun-13 17:30N 40°38' E 025°40'612.1
2018-Jun-13 17:00N 40°42' E 025°46'612.6
2018-Jun-13 16:30N 40°47' E 025°51'3 1.4
2018-Jun-13 14:15N 40°49' E 025°54'312.3
2018-Jun-13 14:00N 40°47' E 025°52'713.3
2018-Jun-13 13:29N 40°42' E 025°45'713.4
2018-Jun-13 13:00N 40°38' E 025°38'713.0
2018-Jun-13 12:29N 40°33' E 025°32'511.5
2018-Jun-13 12:00N 40°28' E 025°28'0 0.1
2018-Jun-13 10:50N 40°28' E 025°28'1 3.0
2018-Jun-13 10:29N 40°30' E 025°28'613.0
2018-Jun-13 10:00N 40°34' E 025°34'712.6
2018-Jun-13 09:29N 40°39' E 025°40'612.3
2018-Jun-13 09:00N 40°43' E 025°46'612.6
2018-Jun-13 08:30N 40°48' E 025°51'3 0.2
2018-Jun-12 18:39N 40°51' E 025°53'1 7.1
2018-Jun-12 18:31N 40°50' E 025°54'1012.4
2018-Jun-12 17:41N 40°42' E 025°46'212.3
2018-Jun-12 17:30N 40°40' E 025°44'712.9
2018-Jun-12 16:59N 40°36' E 025°37'613.1
2018-Jun-12 16:31N 40°31' E 025°31'4 2.2
2018-Jun-12 14:47N 40°28' E 025°28'0 0.0
2018-Jun-12 14:30N 40°28' E 025°28'0 0.0
2018-Jun-12 13:12N 40°28' E 025°28'0 0.0
2018-Jun-12 12:56N 40°28' E 025°28'0 0.0
2018-Jun-12 12:27N 40°28' E 025°28'0 0.0
2018-Jun-12 11:44N 40°28' E 025°28'0 0.0
2018-Jun-12 11:30N 40°28' E 025°28'0 0.0
2018-Jun-12 10:59N 40°28' E 025°28'0 0.0
2018-Jun-12 10:20N 40°28' E 025°28'0 0.0
2018-Jun-12 10:00N 40°28' E 025°28'0 0.0
2018-Jun-12 09:30N 40°28' E 025°28'0 0.0
2018-Jun-12 09:00N 40°28' E 025°28'1 1.3
2018-Jun-12 08:30N 40°29' E 025°28'612.8
2018-Jun-12 08:01N 40°34' E 025°33'612.9
2018-Jun-12 07:30N 40°38' E 025°40'612.7
2018-Jun-12 07:00N 40°43' E 025°46'1011.7
2018-Jun-12 06:11N 40°50' E 025°53'14 1.1
2018-Jun-11 17:27N 40°40' E 025°41'612.8
2018-Jun-11 16:57N 40°36' E 025°35'7 0.3
2018-Jun-10 17:20N 40°39' E 025°43'412.6
2018-Jun-10 17:01N 40°36' E 025°39'612.6
2018-Jun-10 16:30N 40°32' E 025°32'5 8.6
2018-Jun-10 15:59N 40°28' E 025°28'0 0.0
2018-Jun-10 15:29N 40°28' E 025°28'0 0.0
2018-Jun-10 14:59N 40°28' E 025°28'15 2.6
2018-Jun-10 09:20N 40°39' E 025°42'612.6
2018-Jun-10 08:52N 40°35' E 025°36'412.3
2018-Jun-10 08:30N 40°32' E 025°32'5 2.3
2018-Jun-10 06:29N 40°28' E 025°28'0 0.0
2018-Jun-10 05:51N 40°28' E 025°28'0 0.0
2018-Jun-10 05:30N 40°28' E 025°28'0 0.0
2018-Jun-10 04:48N 40°28' E 025°28'0 0.0
2018-Jun-10 04:28N 40°28' E 025°28'0 0.0
2018-Jun-10 04:00N 40°28' E 025°28'0 0.0
2018-Jun-10 03:30N 40°28' E 025°28'0 0.0
2018-Jun-10 03:00N 40°28' E 025°28'0 0.0
2018-Jun-10 02:30N 40°28' E 025°28'0 0.0
2018-Jun-10 02:00N 40°28' E 025°28'0 0.0
2018-Jun-10 01:29N 40°28' E 025°28'0 0.0
2018-Jun-10 01:00N 40°28' E 025°28'0 0.0
2018-Jun-10 00:30N 40°28' E 025°28'0 0.0
2018-Jun-10 00:00N 40°28' E 025°28'0 0.0
2018-Jun-09 23:30N 40°28' E 025°28'0 0.0
2018-Jun-09 23:01N 40°28' E 025°28'0 0.0
2018-Jun-09 22:31N 40°28' E 025°28'0 0.0
2018-Jun-09 22:00N 40°28' E 025°28'0 0.0
2018-Jun-09 21:30N 40°28' E 025°28'0 0.0
2018-Jun-09 21:01N 40°28' E 025°28'0 0.0
2018-Jun-09 20:31N 40°28' E 025°28'0 0.0
2018-Jun-09 20:00N 40°28' E 025°28'0 0.0
2018-Jun-09 19:23N 40°28' E 025°28'0 0.0
2018-Jun-09 18:59N 40°28' E 025°28'0 0.0
2018-Jun-09 18:30N 40°28' E 025°28'0 0.0
2018-Jun-09 18:00N 40°28' E 025°28'0 0.0
2018-Jun-09 17:30N 40°28' E 025°28'0 0.0
2018-Jun-09 17:00N 40°28' E 025°28'0 0.0
2018-Jun-09 16:26N 40°28' E 025°28'0 0.0
2018-Jun-09 15:51N 40°28' E 025°28'0 1.4
2018-Jun-09 15:30N 40°29' E 025°28'29 7.2
2018-Jun-09 11:30N 40°50' E 025°54'612.5
2018-Jun-09 11:01N 40°45' E 025°50'612.4
2018-Jun-09 10:30N 40°40' E 025°44'612.6
2018-Jun-09 10:00N 40°36' E 025°38'612.4
2018-Jun-09 09:30N 40°32' E 025°32'4 2.8
2018-Jun-09 07:58N 40°28' E 025°28'0 0.0
2018-Jun-09 07:19N 40°28' E 025°28'0 0.0
2018-Jun-09 06:02N 40°28' E 025°28'0 0.0
2018-Jun-09 06:00N 40°28' E 025°28'0 0.0
2018-Jun-09 05:18N 40°28' E 025°28'0 0.0
2018-Jun-09 04:54N 40°28' E 025°28'0 0.0
2018-Jun-09 04:30N 40°28' E 025°28'0 0.0
2018-Jun-09 03:59N 40°28' E 025°28'0 0.0
2018-Jun-09 03:10N 40°28' E 025°28'0 0.0
2018-Jun-09 03:00N 40°28' E 025°28'0 0.0
2018-Jun-09 02:30N 40°28' E 025°28'0 0.0
2018-Jun-09 01:52N 40°28' E 025°28'0 0.0
2018-Jun-09 01:27N 40°28' E 025°28'0 0.0
2018-Jun-09 01:00N 40°28' E 025°28'0 0.0
2018-Jun-09 00:30N 40°28' E 025°28'0 0.0
2018-Jun-08 23:59N 40°28' E 025°28'0 0.0
2018-Jun-08 23:28N 40°28' E 025°28'0 0.0
2018-Jun-08 22:54N 40°28' E 025°28'0 0.0
2018-Jun-08 22:30N 40°28' E 025°28'0 0.0
2018-Jun-08 22:00N 40°28' E 025°28'0 0.0
2018-Jun-08 21:30N 40°28' E 025°28'0 0.0
2018-Jun-08 20:54N 40°28' E 025°28'0 0.0
2018-Jun-08 20:17N 40°28' E 025°28'0 0.0
2018-Jun-08 20:00N 40°28' E 025°28'0 0.0
2018-Jun-08 19:25N 40°28' E 025°28'0 0.0
2018-Jun-08 18:58N 40°28' E 025°28'0 0.0
2018-Jun-08 18:30N 40°28' E 025°28'0 0.0
2018-Jun-08 18:00N 40°28' E 025°28'0 0.0
2018-Jun-08 17:22N 40°28' E 025°28'0 0.0
2018-Jun-08 16:56N 40°28' E 025°28'1 1.9
2018-Jun-08 16:30N 40°29' E 025°28'612.8
2018-Jun-08 16:00N 40°34' E 025°35'20 5.4
2018-Jun-08 12:19N 40°48' E 025°53'412.5
2018-Jun-08 11:59N 40°45' E 025°50'612.5
2018-Jun-08 11:30N 40°41' E 025°43'612.5
2018-Jun-08 11:01N 40°37' E 025°38'612.4
2018-Jun-08 10:30N 40°32' E 025°32'5 9.2
2018-Jun-08 10:00N 40°28' E 025°28'0 0.0
2018-Jun-08 08:39N 40°29' E 025°28'1 5.1
2018-Jun-08 08:30N 40°29' E 025°28'  

Dump ship's entire track history